Time;durP1;ratioP1;P1;durP2;ratioP2;P2;SDS_P1;SDS_P2;PMS_P1;PMS_P2;Temp;Humidity;BMP_temperature;BMP_pressure;BME280_temperature;BME280_humidity;BME280_pressure;Samples;Min_cycle;Max_cycle;Signal;HPM_P1;HPM_P2
2022/08/09 00:01:47;;;;;;;13.80;9.68;;;13.50;99.90;;;12.51;100.00;102322.69;4943185;28;20047;-78
2022/08/09 00:04:18;;;;;;;16.35;9.93;;;13.50;99.90;;;12.52;100.00;102329.69;4954316;28;20046;-78
2022/08/09 00:06:49;;;;;;;15.10;9.98;;;13.50;99.90;;;12.52;100.00;102328.84;4965966;28;20042;-77
2022/08/09 00:09:16;;;;;;;15.15;10.15;;;13.60;99.90;;;12.55;100.00;102320.84;4951389;28;20555;-78
2022/08/09 00:11:44;;;;;;;15.02;9.63;;;13.50;99.90;;;12.55;100.00;102322.59;4969631;28;20471;-78
2022/08/09 00:14:10;;;;;;;17.40;9.57;;;13.60;99.90;;;12.57;100.00;102326.94;4977619;28;20045;-78
2022/08/09 00:16:41;;;;;;;15.57;9.05;;;13.60;99.90;;;12.59;100.00;102330.41;4944868;28;20415;-79
2022/08/09 00:19:08;;;;;;;14.25;9.10;;;13.60;99.90;;;12.61;100.00;102328.59;4938989;28;20445;-78
2022/08/09 00:21:34;;;;;;;13.88;8.88;;;13.60;99.90;;;12.65;100.00;102332.84;4969499;28;20034;-77
2022/08/09 00:24:00;;;;;;;17.23;9.82;;;13.70;99.90;;;12.67;100.00;102327.53;4965023;28;20045;-79
2022/08/09 00:26:32;;;;;;;12.98;9.15;;;13.70;99.90;;;12.71;100.00;102323.88;4983285;28;20045;-78
2022/08/09 00:28:58;;;;;;;16.48;9.88;;;13.70;99.90;;;12.74;100.00;102326.41;4932506;28;20415;-78
2022/08/09 00:31:24;;;;;;;16.48;9.75;;;13.80;99.90;;;12.77;100.00;102322.84;4938608;28;20038;-78
2022/08/09 00:33:52;;;;;;;14.13;9.02;;;13.70;99.90;;;12.71;100.00;102323.88;4966952;28;20567;-79
2022/08/09 00:36:23;;;;;;;19.30;9.82;;;13.80;99.90;;;12.79;100.00;102324.53;4956928;28;20048;-78
2022/08/09 00:38:49;;;;;;;11.75;9.13;;;13.80;99.90;;;12.83;100.00;102320.88;4956986;28;20117;-78
2022/08/09 00:41:17;;;;;;;17.90;10.00;;;13.80;99.90;;;12.81;100.00;102325.34;4956535;28;21054;-78
2022/08/09 00:43:43;;;;;;;15.48;8.95;;;13.80;99.90;;;12.72;100.00;102325.59;4988948;28;20122;-78
2022/08/09 00:46:09;;;;;;;16.38;9.85;;;13.80;99.90;;;12.65;100.00;102316.13;4957941;28;20468;-78
2022/08/09 00:48:36;;;;;;;13.50;9.13;;;13.80;99.90;;;12.79;100.00;102321.03;4984336;28;20046;-77
2022/08/09 00:51:06;;;;;;;13.90;9.50;;;13.90;99.90;;;12.88;100.00;102323.38;4973161;28;20073;-78
2022/08/09 00:53:36;;;;;;;17.20;9.88;;;13.90;99.90;;;12.93;100.00;102318.81;4980183;28;20791;-79
2022/08/09 00:56:11;;;;;;;12.52;9.13;;;14.00;99.90;;;12.97;100.00;102325.72;4964613;28;20731;-78
2022/08/09 00:58:37;;;;;;;18.17;9.43;;;13.90;99.90;;;13.01;100.00;102313.28;4978543;28;20122;-78
2022/08/09 01:01:22;;;;;;;13.80;8.88;;;14.00;99.90;;;13.00;100.00;102315.06;4950807;28;20046;-78
2022/08/09 01:03:56;;;;;;;18.10;10.20;;;14.00;99.90;;;13.00;100.00;102319.47;4939150;28;20053;-78
2022/08/09 01:06:35;;;;;;;20.50;11.00;;;13.90;99.90;;;12.96;100.00;102317.84;4964065;28;20049;-78
2022/08/09 01:09:29;;;;;;;22.48;11.20;;;13.90;99.90;;;12.93;100.00;102322.31;4972037;28;20521;-78
2022/08/09 01:12:06;;;;;;;17.05;10.68;;;13.90;99.90;;;12.90;100.00;102322.41;4981425;28;20046;-78
2022/08/09 01:14:51;;;;;;;17.42;10.68;;;13.90;99.90;;;12.88;100.00;102326.88;4967954;28;20033;-79
2022/08/09 01:17:29;;;;;;;17.08;10.32;;;13.80;99.90;;;12.82;100.00;102321.78;4948874;28;20085;-80
2022/08/09 01:20:04;;;;;;;18.92;9.55;;;13.80;99.90;;;12.78;100.00;102322.78;4933799;28;20038;-78
2022/08/09 01:23:24;;;;;;;12.00;9.00;;;13.70;99.90;;;12.73;100.00;102330.00;4961233;28;20107;-79
2022/08/09 01:26:35;;;;;;;14.43;9.15;;;13.70;99.90;;;12.65;100.00;102326.72;4963019;28;20046;-79
2022/08/09 01:29:05;;;;;;;14.57;9.43;;;13.60;99.90;;;12.56;100.00;102334.91;4934363;28;20046;-79
2022/08/09 01:31:34;;;;;;;13.25;9.50;;;13.60;99.90;;;12.48;100.00;102324.56;4957666;28;20058;-79
2022/08/09 01:34:03;;;;;;;16.38;10.13;;;13.50;99.90;;;12.41;100.00;102329.16;4958346;28;20052;-80
2022/08/09 01:36:30;;;;;;;16.52;10.63;;;13.40;99.90;;;12.37;100.00;102327.50;4936305;28;20061;-78
2022/08/09 01:38:58;;;;;;;22.65;10.70;;;13.40;99.90;;;12.35;100.00;102331.97;4926870;28;20426;-79
2022/08/09 01:41:31;;;;;;;17.05;10.73;;;13.40;99.90;;;12.33;100.00;102325.84;4983879;28;20033;-78
2022/08/09 01:44:02;;;;;;;20.10;10.75;;;13.30;99.90;;;12.29;100.00;102326.88;4951697;28;20536;-79
2022/08/09 01:46:40;;;;;;;21.33;11.13;;;13.30;99.90;;;12.28;100.00;102333.91;4975118;28;20089;-78
2022/08/09 01:49:09;;;;;;;13.77;9.18;;;;;;;12.24;100.00;102332.28;4954870;28;20050;-78
2022/08/09 01:51:39;;;;;;;24.58;11.95;;;13.30;99.90;;;12.27;100.00;102333.97;4996230;28;20048;-78
2022/08/09 01:54:07;;;;;;;18.42;11.68;;;13.30;99.90;;;12.29;100.00;102330.38;4941312;28;20580;-77
2022/08/09 01:56:38;;;;;;;17.35;11.13;;;13.30;99.90;;;12.29;100.00;102327.75;4942517;28;20042;-78
2022/08/09 01:59:10;;;;;;;24.23;11.07;;;13.30;99.90;;;12.31;100.00;102331.22;4959198;28;20055;-78
2022/08/09 02:01:38;;;;;;;17.42;10.75;;;13.30;99.90;;;12.31;100.00;102330.34;4960261;28;20055;-78
2022/08/09 02:04:08;;;;;;;15.20;10.68;;;13.30;99.90;;;12.27;100.00;102329.56;4963816;28;20503;-78
2022/08/09 02:07:25;;;;;;;18.33;11.00;;;13.40;99.90;;;12.31;100.00;102335.63;4931674;28;20061;-78
2022/08/09 02:09:28;;;;;;;18.38;10.82;;;13.40;99.90;;;12.35;100.00;102342.53;4960285;28;20037;-78
2022/08/09 02:11:55;;;;;;;18.65;11.10;;;13.40;99.90;;;12.39;100.00;102340.69;4990964;28;20038;-78
2022/08/09 02:14:23;;;;;;;18.65;10.40;;;13.40;99.90;;;12.37;100.00;102339.84;4952675;28;20109;-79
2022/08/09 02:16:53;;;;;;;19.27;10.15;;;13.40;99.90;;;12.34;100.00;102343.44;4951725;28;20045;-79
2022/08/09 02:19:22;;;;;;;14.93;9.80;;;13.40;99.90;;;12.29;100.00;102343.59;4955861;28;20037;-78
2022/08/09 02:21:54;;;;;;;18.67;10.50;;;13.30;99.90;;;12.32;100.00;102346.13;4951616;28;20110;-80
2022/08/09 02:24:34;;;;;;;20.35;10.07;;;13.30;99.90;;;12.31;100.00;102348.84;4937053;28;20519;-78
2022/08/09 02:27:07;;;;;;;15.80;11.10;;;13.30;99.90;;;12.31;100.00;102354.13;4937737;28;20050;-78
2022/08/09 02:29:40;;;;;;;19.20;10.30;;;13.30;99.90;;;12.28;100.00;102349.75;4945463;28;20041;-78
2022/08/09 02:32:11;;;;;;;18.77;10.45;;;13.30;99.90;;;12.17;100.00;102353.63;4975107;28;20054;-78
2022/08/09 02:34:40;;;;;;;23.27;10.85;;;13.30;99.90;;;12.17;100.00;102351.84;4982104;28;20043;-79
2022/08/09 02:37:15;;;;;;;19.13;11.18;;;13.30;99.90;;;12.14;100.00;102349.28;4962310;28;20061;-78
2022/08/09 02:39:48;;;;;;;17.33;11.05;;;13.30;99.90;;;12.17;100.00;102351.84;4975981;28;20441;-78
2022/08/09 02:42:21;;;;;;;17.40;10.63;;;13.30;99.90;;;12.18;100.00;102350.06;4974389;28;20509;-78
2022/08/09 02:44:52;;;;;;;22.95;10.63;;;13.30;99.90;;;12.23;100.00;102345.53;4951630;28;20094;-79
2022/08/09 02:47:22;;;;;;;17.63;10.77;;;13.30;99.90;;;12.22;100.00;102341.16;4965236;28;20439;-78
2022/08/09 02:50:06;;;;;;;15.93;10.63;;;13.30;99.90;;;12.27;100.00;102341.91;4942939;28;20046;-78
2022/08/09 02:52:50;;;;;;;18.52;12.52;;;13.30;99.90;;;12.28;100.00;102343.63;4970840;28;20029;-78
2022/08/09 02:55:19;;;;;;;19.88;10.77;;;13.30;99.90;;;12.27;100.00;102342.75;4954175;28;20044;-78
2022/08/09 02:57:46;;;;;;;22.23;11.68;;;13.30;99.90;;;12.26;100.00;102341.00;4960736;28;20041;-79
2022/08/09 03:00:13;;;;;;;18.70;10.88;;;13.30;99.90;;;12.26;100.00;102345.44;4952031;28;20680;-78
2022/08/09 03:02:43;;;;;;;17.65;9.48;;;13.30;99.90;;;12.25;100.00;102347.22;4925630;28;20038;-78
2022/08/09 03:05:19;;;;;;;14.00;10.23;;;13.30;99.90;;;12.23;100.00;102350.81;4934129;28;20105;-78
2022/08/09 03:07:46;;;;;;;17.30;10.23;;;13.20;99.90;;;12.21;100.00;102350.84;4945753;28;20045;-78
2022/08/09 03:10:17;;;;;;;18.58;10.25;;;13.30;99.90;;;12.23;100.00;102353.47;4971788;28;20063;-78
2022/08/09 03:12:45;;;;;;;16.92;11.07;;;13.20;99.90;;;12.26;100.00;102353.34;4957705;28;20040;-78
2022/08/09 03:15:12;;;;;;;17.42;11.80;;;13.30;99.90;;;12.28;100.00;102343.63;4958276;28;20037;-79
2022/08/09 03:17:38;;;;;;;20.48;11.65;;;13.30;99.90;;;12.27;100.00;102350.69;4960884;28;20113;-79
2022/08/09 03:20:09;;;;;;;18.55;11.27;;;13.40;99.90;;;12.35;100.00;102350.44;4956104;28;20025;-78
2022/08/09 03:22:39;;;;;;;15.93;11.00;;;13.40;99.90;;;12.39;100.00;102362.66;4975636;28;20053;-78
2022/08/09 03:25:10;;;;;;;18.88;11.68;;;13.40;99.90;;;12.42;100.00;102349.41;4960180;28;20739;-78
2022/08/09 03:27:37;;;;;;;18.77;11.40;;;13.40;99.90;;;12.42;100.00;102354.69;4951954;28;20057;-78
2022/08/09 03:30:04;;;;;;;20.35;11.48;;;13.40;99.90;;;12.43;100.00;102351.09;4952199;28;20041;-78
2022/08/09 03:32:32;;;;;;;21.27;11.20;;;13.40;99.90;;;12.41;100.00;102349.44;4925018;28;20074;-79
2022/08/09 03:35:04;;;;;;;22.98;11.75;;;13.40;99.90;;;12.44;100.00;102352.84;4910750;28;20055;-78
2022/08/09 03:37:30;;;;;;;19.70;11.93;;;13.40;99.90;;;12.46;100.00;102352.78;4984306;28;20093;-78
2022/08/09 03:39:56;;;;;;;20.85;12.27;;;13.50;99.90;;;12.51;100.00;102350.91;4955333;28;20125;-78
2022/08/09 03:42:22;;;;;;;19.77;11.75;;;13.50;99.90;;;12.54;100.00;102352.59;4963127;28;20569;-78
2022/08/09 03:44:47;;;;;;;18.20;11.63;;;13.50;99.90;;;12.57;100.00;102356.00;4938712;28;20169;-80
2022/08/09 03:47:13;;;;;;;;;;;13.50;99.90;;;12.61;100.00;102349.72;4969836;28;23795;-78
2022/08/09 03:49:41;;;;;;;19.85;11.73;;;13.60;99.90;;;12.62;100.00;102356.75;4964932;28;19924;-78
2022/08/09 03:52:10;;;;;;;18.50;11.65;;;13.60;99.90;;;12.65;100.00;102356.63;4956869;28;20049;-78
2022/08/09 03:54:38;;;;;;;23.33;12.82;;;13.60;99.90;;;12.65;100.00;102361.06;4953744;28;20034;-79
2022/08/09 03:57:12;;;;;;;25.27;13.05;;;13.60;99.90;;;12.61;100.00;102364.69;4959562;28;20076;-78
2022/08/09 03:59:38;;;;;;;16.20;11.77;;;13.60;99.90;;;12.59;100.00;102359.47;4993908;28;20022;-79
2022/08/09 04:02:04;;;;;;;21.42;11.70;;;13.50;99.90;;;12.61;100.00;102362.06;4968710;28;20045;-78
2022/08/09 04:04:31;;;;;;;20.65;12.30;;;13.50;99.90;;;12.61;100.00;102356.78;4964923;28;20773;-78
2022/08/09 04:06:57;;;;;;;24.75;12.13;;;13.60;99.90;;;12.61;100.00;102360.31;4966154;28;20038;-78
2022/08/09 04:09:28;;;;;;;21.17;12.60;;;13.60;99.90;;;12.65;100.00;102366.34;4950661;28;20093;-78
2022/08/09 04:12:02;;;;;;;18.25;12.18;;;13.60;99.90;;;12.67;100.00;102365.38;4958607;28;20037;-77
2022/08/09 04:14:36;;;;;;;24.13;12.60;;;13.60;99.90;;;12.75;100.00;102366.97;4965011;28;20041;-78
2022/08/09 04:17:02;;;;;;;22.00;11.85;;;13.60;99.90;;;12.82;100.00;102368.50;4951741;28;20045;-77
2022/08/09 04:19:28;;;;;;;26.02;12.65;;;13.80;99.90;;;13.01;100.00;102374.09;4920547;28;20033;-78
2022/08/09 04:21:53;;;;;;;24.73;12.25;;;13.90;99.90;;;13.12;100.00;102374.63;4982729;28;20042;-78
2022/08/09 04:24:24;;;;;;;20.10;11.88;;;14.10;99.90;;;13.73;100.00;102379.75;4943728;28;20061;-79
2022/08/09 04:26:51;;;;;;;13.70;9.85;;;15.40;99.90;;;15.37;100.00;102394.94;4982490;28;20038;-79
2022/08/09 04:29:17;;;;;;;15.98;10.45;;;16.60;99.90;;;16.95;100.00;102397.03;4976777;28;20643;-79
2022/08/09 04:31:43;;;;;;;18.33;10.27;;;17.90;99.90;;;18.52;89.31;102395.38;4952167;28;20053;-78
2022/08/09 04:34:09;;;;;;;14.98;9.32;;;18.90;99.90;;;19.36;80.21;102405.03;4970177;28;20035;-78
2022/08/09 04:36:38;;;;;;;13.32;8.38;;;19.60;99.90;;;19.98;75.87;102407.69;4976537;28;20089;-77
2022/08/09 04:39:09;;;;;;;17.08;8.38;;;20.60;99.90;;;21.36;70.77;102409.78;4985552;28;20036;-78
2022/08/09 04:41:35;;;;;;;11.82;7.78;;;20.60;99.90;;;22.37;66.62;102418.19;4961589;28;20042;-78
2022/08/09 04:44:10;;;;;;;15.65;8.57;;;22.20;99.90;;;23.01;63.75;102426.19;4957826;28;21162;-78
2022/08/09 04:46:39;;;;;;;16.83;8.47;;;22.70;99.90;;;23.83;61.66;102434.47;4967118;28;20117;-77
2022/08/09 04:49:05;;;;;;;17.52;8.85;;;23.40;99.90;;;24.78;59.16;102437.00;4973602;28;20034;-78
2022/08/09 04:51:31;;;;;;;13.15;8.45;;;24.20;99.90;;;26.03;56.31;102440.25;4957699;28;20080;-78
2022/08/09 04:54:02;;;;;;;;;;;24.40;99.90;;;27.39;53.49;102440.88;4965228;28;20061;-78
2022/08/09 04:56:29;;;;;;;14.98;8.18;;;25.80;99.90;;;28.29;50.51;102439.66;4951350;28;19914;-78
2022/08/09 04:58:55;;;;;;;15.15;8.10;;;26.40;99.90;;;28.55;49.51;102441.75;4951075;28;20027;-78
2022/08/09 05:01:21;;;;;;;13.13;7.15;;;26.90;99.30;;;29.18;48.50;102452.75;4970277;28;20038;-78
2022/08/09 05:03:47;;;;;;;10.82;7.05;;;27.50;99.00;;;30.18;46.79;102456.22;4948526;28;20042;-78
2022/08/09 05:06:16;;;;;;;11.00;6.63;;;28.10;98.50;;;31.01;45.57;102463.84;4972261;28;20061;-78
2022/08/09 05:08:42;;;;;;;9.10;6.80;;;28.80;97.50;;;32.00;43.52;102470.34;4953108;28;20055;-78
2022/08/09 05:11:08;;;;;;;10.63;6.68;;;29.40;96.00;;;32.66;42.40;102471.09;4938367;28;20058;-78
2022/08/09 05:13:34;;;;;;;10.15;6.47;;;29.80;94.10;;;33.04;41.43;102478.59;4983735;28;20042;-78
2022/08/09 05:16:00;;;;;;;12.25;6.45;;;30.10;93.40;;;33.02;41.09;102481.50;4959464;28;20029;-78
2022/08/09 05:18:34;;;;;;;8.15;6.18;;;30.40;93.60;;;33.60;40.32;102494.88;4958695;28;20392;-78
2022/08/09 05:21:00;;;;;;;9.05;5.28;;;31.00;94.00;;;34.59;39.06;102495.69;5001586;28;20061;-78
2022/08/09 05:23:26;;;;;;;15.80;5.38;;;31.60;93.00;;;35.52;37.61;102498.78;4949399;28;20037;-78
2022/08/09 05:25:52;;;;;;;8.98;4.47;;;32.10;90.80;;;35.81;36.90;102506.06;4987938;28;20038;-78
2022/08/09 05:28:21;;;;;;;8.02;5.18;;;32.50;88.70;;;35.88;36.42;102509.69;4954159;28;20077;-78
2022/08/09 05:30:48;;;;;;;11.20;5.65;;;32.50;89.70;;;35.91;35.91;102516.69;4914009;28;20089;-78
2022/08/09 05:33:13;;;;;;;8.45;5.43;;;32.80;90.30;;;36.81;34.86;102528.78;5008392;28;20034;-79
2022/08/09 05:35:39;;;;;;;10.85;5.80;;;33.20;90.00;;;37.52;33.94;102527.59;4977845;28;20026;-78
2022/08/09 05:38:05;;;;;;;10.82;5.80;;;33.60;86.50;;;38.07;33.45;102527.47;4965300;28;20053;-79
2022/08/09 05:40:31;;;;;;;10.60;4.97;;;33.80;88.00;;;38.20;33.15;102537.63;4983392;28;20026;-78
2022/08/09 05:42:57;;;;;;;7.00;5.00;;;34.20;86.80;;;38.22;33.03;102546.50;5000351;28;20065;-79
2022/08/09 05:45:28;;;;;;;8.55;5.35;;;34.30;85.90;;;38.23;33.04;102549.06;4956245;28;20320;-78
2022/08/09 05:47:55;;;;;;;10.65;5.32;;;34.70;85.70;;;39.06;32.38;102558.66;5000779;28;20034;-78
2022/08/09 05:50:24;;;;;;;9.38;5.00;;;35.10;83.40;;;39.66;31.05;102553.69;4962699;28;20022;-78
2022/08/09 05:52:55;;;;;;;5.53;4.38;;;35.50;83.90;;;39.99;30.55;102563.63;4948973;28;20050;-78
2022/08/09 05:55:21;;;;;;;8.02;4.60;;;35.60;82.00;;;39.71;30.64;102566.78;4952084;28;20031;-79
2022/08/09 05:57:48;;;;;;;6.50;3.90;;;35.80;79.20;;;39.83;30.46;102559.50;4969817;28;20573;-78
2022/08/09 06:00:14;;;;;;;6.75;3.47;;;36.10;81.30;;;40.28;30.27;102570.41;4946972;28;20044;-79
2022/08/09 06:02:40;;;;;;;11.05;3.58;;;36.30;79.10;;;40.44;30.26;102571.75;4986004;28;20058;-79
2022/08/09 06:05:12;;;;;;;8.18;3.50;;;36.40;79.90;;;40.46;30.15;102574.28;4969960;28;20037;-78
2022/08/09 06:07:38;;;;;;;7.32;3.00;;;36.10;76.10;;;39.25;31.26;102562.38;4993818;28;20046;-78
2022/08/09 06:10:05;;;;;;;4.50;3.05;;;35.90;78.10;;;39.28;31.14;102567.44;4979772;28;20069;-79
2022/08/09 06:12:30;;;;;;;7.80;2.85;;;35.80;77.40;;;38.85;31.58;102563.34;4934674;28;20041;-80
2022/08/09 06:14:56;;;;;;;5.50;3.00;;;35.30;75.90;;;37.90;32.26;102555.34;4947850;28;20749;-79
2022/08/09 06:17:22;;;;;;;5.88;3.13;;;34.80;76.80;;;37.25;32.47;102554.13;4936718;28;20073;-79
2022/08/09 06:19:55;;;;;;;5.05;2.40;;;34.30;74.60;;;36.27;32.85;102554.97;4957661;28;20042;-79
2022/08/09 06:22:21;;;;;;;6.05;2.75;;;34.30;78.20;;;36.84;33.34;102560.44;4930897;28;20036;-79
2022/08/09 06:24:47;;;;;;;7.20;2.63;;;34.50;75.60;;;37.10;32.24;102559.75;4917104;28;20042;-79
2022/08/09 06:27:13;;;;;;;6.82;2.83;;;34.50;76.10;;;36.95;31.95;102557.97;4952646;28;20479;-78
2022/08/09 06:29:43;;;;;;;5.65;2.60;;;34.60;76.10;;;37.06;32.18;102564.75;4919381;28;20049;-79
2022/08/09 06:32:10;;;;;;;6.90;2.55;;;35.00;74.50;;;37.46;31.42;102564.13;4938312;28;20109;-79
2022/08/09 06:34:35;;;;;;;8.75;2.60;;;34.90;74.70;;;36.72;32.21;102568.41;4974968;28;20034;-79
2022/08/09 06:37:01;;;;;;;4.63;2.80;;;34.90;74.40;;;36.32;32.61;102559.84;4948836;28;20123;-79
2022/08/09 06:39:29;;;;;;;6.63;2.83;;;34.70;74.00;;;36.10;33.00;102561.75;4982775;28;20037;-79
2022/08/09 06:41:58;;;;;;;4.45;2.50;;;34.90;75.60;;;36.34;32.25;102555.88;4951183;28;20034;-79
2022/08/09 06:44:24;;;;;;;9.98;2.65;;;34.80;73.00;;;36.25;32.41;102558.97;5000810;23;20034;-79
2022/08/09 06:46:50;;;;;;;5.75;2.28;;;35.10;73.70;;;36.81;32.31;102561.69;4983174;28;20063;-79
2022/08/09 06:49:16;;;;;;;9.15;2.85;;;35.60;72.50;;;37.31;30.91;102567.88;4973390;28;20095;-79
2022/08/09 06:51:42;;;;;;;13.10;2.78;;;35.40;72.30;;;36.24;32.80;102557.25;4991686;28;20068;-79
2022/08/09 06:54:08;;;;;;;4.50;2.50;;;35.40;72.70;;;36.45;31.98;102554.47;4944816;28;20544;-79
2022/08/09 06:56:44;;;;;;;5.20;2.60;;;35.30;72.10;;;36.12;32.63;102554.19;4945503;28;20034;-79
2022/08/09 06:59:09;;;;;;;5.90;2.67;;;35.70;74.30;;;37.07;32.30;102558.25;4965316;28;20026;-79
2022/08/09 07:01:35;;;;;;;5.55;2.60;;;36.10;70.80;;;37.15;31.23;102558.09;4975732;28;20042;-79
2022/08/09 07:04:01;;;;;;;3.75;2.30;;;36.70;72.70;;;38.07;30.87;102566.81;5017888;23;20037;-79
2022/08/09 07:06:30;;;;;;;6.88;2.67;;;36.90;71.00;;;37.92;30.48;102557.88;5000507;28;20056;-79
2022/08/09 07:08:58;;;;;;;7.63;2.45;;;37.50;70.60;;;38.72;30.30;102566.13;5035624;28;20032;-79
2022/08/09 07:11:23;;;;;;;5.20;2.17;;;37.40;67.60;;;37.82;30.59;102574.81;5000444;28;20025;-79
2022/08/09 07:13:49;;;;;;;6.65;2.50;;;37.10;68.90;;;37.02;31.72;102574.50;5017480;28;20075;-80
2022/08/09 07:16:15;;;;;;;6.28;2.65;;;37.20;68.40;;;37.81;30.54;102570.34;4995264;28;20045;-79
2022/08/09 07:18:41;;;;;;;6.50;2.40;;;37.00;68.40;;;35.78;32.43;102561.25;4973489;28;20043;-79
2022/08/09 07:21:12;;;;;;;4.90;2.20;;;36.20;70.10;;;35.63;32.78;102561.28;4985175;28;20030;-79
2022/08/09 07:23:40;;;;;;;4.25;2.08;;;36.10;69.50;;;36.63;31.72;102558.63;4992661;23;20124;-79
2022/08/09 07:26:06;;;;;;;6.70;2.17;;;36.00;68.70;;;36.34;31.61;102563.25;4980359;28;20033;-79
2022/08/09 07:28:32;;;;;;;5.70;2.22;;;35.90;67.50;;;35.72;32.30;102553.78;4960208;28;20457;-79
2022/08/09 07:31:07;;;;;;;3.90;2.13;;;35.90;68.00;;;35.58;32.21;102549.22;4983124;28;20029;-80
2022/08/09 07:33:32;;;;;;;3.97;2.13;;;36.10;67.60;;;35.71;31.72;102563.91;4990849;28;20034;-80
2022/08/09 07:35:58;;;;;;;6.88;2.40;;;36.40;67.70;;;36.27;31.69;102557.72;4981490;28;20041;-79
2022/08/09 07:38:25;;;;;;;6.63;2.15;;;36.50;68.20;;;36.56;31.46;102561.28;4973717;28;20463;-79
2022/08/09 07:40:53;;;;;;;8.32;2.67;;;36.70;66.60;;;36.52;31.10;102560.88;4977634;28;20065;-81
2022/08/09 07:43:21;;;;;;;5.55;2.03;;;35.80;66.10;;;33.89;33.21;102552.38;4986201;28;20037;-79
2022/08/09 07:45:46;;;;;;;6.43;2.40;;;35.00;68.60;;;33.48;34.46;102546.31;4978652;28;20045;-79
2022/08/09 07:48:14;;;;;;;5.95;2.17;;;34.30;70.60;;;33.60;34.64;102544.88;4958275;28;20491;-80
2022/08/09 07:50:42;;;;;;;4.28;2.15;;;34.70;70.80;;;34.99;33.73;102550.13;4946913;28;20045;-80
2022/08/09 07:53:16;;;;;;;4.90;2.25;;;34.90;69.10;;;35.00;33.19;102549.94;4947266;28;20038;-80
2022/08/09 07:55:42;;;;;;;7.13;1.90;;;35.40;66.10;;;35.19;32.08;102550.44;4962664;28;20042;-79
2022/08/09 07:58:08;;;;;;;4.57;1.90;;;35.20;66.10;;;33.63;33.25;102552.72;4973631;28;20041;-79
2022/08/09 08:00:42;;;;;;;8.57;2.08;;;34.00;67.00;;;31.79;35.55;102544.38;4925441;28;20022;-79
2022/08/09 08:03:08;;;;;;;5.97;1.70;;;32.50;69.40;;;30.22;37.30;102532.84;5051477;23;20036;-79
2022/08/09 08:05:34;;;;;;;3.88;2.35;;;31.20;72.90;;;29.32;39.32;102534.63;5043571;28;20045;-79
2022/08/09 08:08:02;;;;;;;4.85;2.10;;;30.00;75.10;;;28.29;40.72;102531.75;5026707;28;20028;-79
2022/08/09 08:10:36;;;;;;;8.48;1.90;;;29.80;77.10;;;29.50;39.22;102534.66;5007046;28;20033;-79
2022/08/09 08:13:02;;;;;;;8.27;2.00;;;29.60;77.20;;;28.89;40.00;102527.94;5040514;28;20028;-80
2022/08/09 08:15:28;;;;;;;4.70;2.33;;;29.30;77.20;;;28.88;40.16;102531.63;5028211;28;20044;-79
2022/08/09 08:18:00;;;;;;;7.15;2.22;;;29.30;79.00;;;28.59;40.37;102525.31;5050326;28;20035;-79
2022/08/09 08:20:31;;;;;;;8.43;1.83;;;29.20;77.40;;;28.46;40.39;102523.91;5035087;28;20033;-79
2022/08/09 08:23:22;;;;;;;5.38;2.10;;;29.00;79.10;;;28.08;41.44;102514.81;4976386;22;20541;-79
2022/08/09 08:25:48;;;;;;;5.53;2.03;;;28.50;79.60;;;27.63;42.64;102512.66;4951506;28;20042;-80
2022/08/09 08:28:15;;;;;;;7.88;2.05;;;28.20;79.90;;;27.53;42.92;102513.47;4968664;28;20037;-79
2022/08/09 08:30:43;;;;;;;4.80;1.90;;;27.90;82.40;;;27.27;43.43;102512.28;4956585;28;20498;-79
2022/08/09 08:33:12;;;;;;;3.88;1.80;;;27.60;81.60;;;26.87;43.52;102504.97;4947743;28;20035;-80
2022/08/09 08:35:38;;;;;;;9.40;1.88;;;27.40;83.00;;;27.04;44.11;102501.66;4970816;28;20045;-79
2022/08/09 08:38:04;;;;;;;13.40;2.65;;;27.60;86.40;;;27.81;43.68;102503.66;4981809;28;20041;-79
2022/08/09 08:40:34;;;;;;;10.50;2.45;;;27.30;85.80;;;26.36;46.33;102496.72;4977216;28;20533;-79
2022/08/09 08:43:05;;;;;;;7.43;2.03;;;26.80;85.60;;;25.64;47.86;102493.81;4942112;28;20029;-79
2022/08/09 08:45:53;;;;;;;5.32;2.40;;;26.60;90.00;;;26.49;48.21;102504.63;4885298;28;20042;-79
2022/08/09 08:48:25;;;;;;;4.70;2.33;;;26.90;90.10;;;27.07;47.33;102506.78;4963088;28;20042;-80
2022/08/09 08:50:52;;;;;;;6.45;2.25;;;27.00;87.30;;;26.95;47.30;102507.88;4958093;28;20052;-81
2022/08/09 08:53:19;;;;;;;6.18;2.10;;;27.30;85.30;;;27.12;45.56;102500.97;4961028;28;20084;-79
2022/08/09 08:56:01;;;;;;;6.07;2.22;;;27.50;85.60;;;27.24;47.55;102501.75;4932863;28;20461;-79
2022/08/09 08:58:36;;;;;;;6.38;1.85;;;27.10;83.70;;;26.22;47.47;102502.47;4940940;28;20069;-79
2022/08/09 09:01:05;;;;;;;3.38;1.58;;;27.00;85.50;;;26.06;47.25;102493.94;4940625;28;20162;-80
2022/08/09 09:03:36;;;;;;;8.20;1.90;;;26.80;85.50;;;25.80;47.66;102488.88;4968932;23;20061;-80
2022/08/09 09:06:06;;;;;;;4.30;1.90;;;26.60;87.00;;;25.95;48.34;102489.47;4985927;28;20028;-80
2022/08/09 09:08:43;;;;;;;4.85;1.65;;;26.60;87.40;;;26.17;46.49;102493.88;4949512;28;20056;-79
2022/08/09 09:11:10;;;;;;;8.15;1.95;;;26.70;87.90;;;26.48;47.02;102485.84;4990129;28;20041;-79
2022/08/09 09:13:45;;;;;;;3.47;1.67;;;26.90;86.90;;;26.78;46.61;102490.44;5002611;28;20025;-79
2022/08/09 09:16:11;;;;;;;7.13;2.08;;;27.10;86.10;;;26.83;45.98;102492.75;4989732;28;20039;-79
2022/08/09 09:18:37;;;;;;;4.72;1.90;;;26.90;85.20;;;26.08;47.40;102487.44;4994452;28;20693;-79
2022/08/09 09:21:12;;;;;;;3.33;1.75;;;26.60;86.20;;;25.77;47.67;102491.84;4984644;28;20036;-80
2022/08/09 09:23:43;;;;;;;5.07;1.80;;;26.50;89.20;;;26.05;47.53;102489.53;4996803;28;20051;-79
2022/08/09 09:26:13;;;;;;;6.50;2.10;;;26.60;87.30;;;26.22;46.86;102494.38;4952553;28;20038;-79
2022/08/09 09:28:45;;;;;;;4.03;2.10;;;26.30;89.80;;;25.65;49.14;102492.88;4971579;28;20049;-79
2022/08/09 09:31:18;;;;;;;10.05;2.28;;;26.40;91.30;;;25.67;51.11;102507.09;4987223;28;20093;-79
2022/08/09 09:33:49;;;;;;;3.65;2.08;;;26.50;90.20;;;26.01;49.74;102507.00;4934896;28;20034;-79
2022/08/09 09:36:19;;;;;;;7.03;2.10;;;26.40;90.10;;;25.73;49.76;102496.63;4951250;28;20514;-79
2022/08/09 09:38:51;;;;;;;6.43;2.13;;;26.40;90.10;;;25.61;50.22;102504.88;4982325;28;20079;-78
2022/08/09 09:41:29;;;;;;;5.38;1.88;;;26.40;88.00;;;25.62;49.41;102490.44;4971062;28;20033;-78
2022/08/09 09:43:58;;;;;;;5.70;2.30;;;26.50;90.20;;;25.89;49.81;102496.22;4997729;28;20042;-79
2022/08/09 09:46:37;;;;;;;5.25;2.40;;;26.50;90.20;;;25.65;48.66;102480.22;4962938;28;20044;-79
2022/08/09 09:49:13;;;;;;;6.28;2.08;;;26.50;88.70;;;25.86;49.03;102482.97;4964787;28;20502;-79
2022/08/09 09:51:43;;;;;;;9.13;2.47;;;26.40;89.60;;;25.65;49.69;102477.53;4938971;28;20125;-79
2022/08/09 09:54:22;;;;;;;7.15;2.40;;;26.40;89.90;;;25.57;49.67;102490.78;4988060;28;20065;-79
2022/08/09 09:56:55;;;;;;;3.50;1.98;;;26.50;90.40;;;25.91;49.13;102483.47;5010864;28;20060;-79
2022/08/09 09:59:36;;;;;;;6.38;2.15;;;26.60;89.70;;;26.20;48.73;102488.25;4942730;28;20559;-80
2022/08/09 10:02:02;;;;;;;6.72;2.55;;;26.80;87.00;;;26.35;46.91;102491.44;5002786;28;20165;-79
2022/08/09 10:04:31;;;;;;;5.32;1.90;;;27.20;88.60;;;27.00;47.12;102484.00;4984174;28;20053;-79
2022/08/09 10:06:58;;;;;;;5.38;1.95;;;27.50;88.90;;;27.28;46.48;102481.53;4964875;28;20042;-79
2022/08/09 10:09:45;;;;;;;5.22;1.95;;;27.40;87.30;;;26.63;46.92;102486.38;4955820;28;20051;-80
2022/08/09 10:12:14;;;;;;;7.20;2.10;;;27.50;90.50;;;27.11;48.04;102500.13;4963974;28;20034;-79
2022/08/09 10:14:41;;;;;;;5.38;2.20;;;27.40;87.10;;;26.77;47.11;102489.59;4959874;28;20038;-79
2022/08/09 10:17:13;;;;;;;5.75;2.03;;;27.30;86.80;;;26.47;47.39;102487.69;4974925;28;20551;-81